sensor_id;sensor_type;location;lat;lon;timestamp;P1;durP1;ratioP1;P2;durP2;ratioP2
3817;SDS011;1924;48.078;11.516;2022-10-20T00:00:31;31.07;;;0.80;;
3817;SDS011;1924;48.078;11.516;2022-10-20T00:02:58;31.10;;;0.80;;
3817;SDS011;1924;48.078;11.516;2022-10-20T00:05:24;30.80;;;0.80;;
3817;SDS011;1924;48.078;11.516;2022-10-20T00:07:51;30.77;;;0.80;;
3817;SDS011;1924;48.078;11.516;2022-10-20T00:10:19;30.90;;;0.80;;
3817;SDS011;1924;48.078;11.516;2022-10-20T00:12:46;30.80;;;0.90;;
3817;SDS011;1924;48.078;11.516;2022-10-20T00:15:13;31.00;;;0.80;;
3817;SDS011;1924;48.078;11.516;2022-10-20T00:17:40;30.80;;;0.80;;
3817;SDS011;1924;48.078;11.516;2022-10-20T00:20:09;30.77;;;0.80;;
3817;SDS011;1924;48.078;11.516;2022-10-20T00:22:36;30.80;;;0.80;;
3817;SDS011;1924;48.078;11.516;2022-10-20T00:25:03;31.00;;;0.80;;
3817;SDS011;1924;48.078;11.516;2022-10-20T00:27:31;30.90;;;0.80;;
3817;SDS011;1924;48.078;11.516;2022-10-20T00:29:58;31.00;;;0.80;;
3817;SDS011;1924;48.078;11.516;2022-10-20T00:32:25;30.87;;;0.80;;
3817;SDS011;1924;48.078;11.516;2022-10-20T00:34:53;30.80;;;0.80;;
3817;SDS011;1924;48.078;11.516;2022-10-20T00:37:20;30.97;;;0.80;;
3817;SDS011;1924;48.078;11.516;2022-10-20T00:39:47;30.87;;;0.80;;
3817;SDS011;1924;48.078;11.516;2022-10-20T00:42:14;30.87;;;0.80;;
3817;SDS011;1924;48.078;11.516;2022-10-20T00:44:50;30.70;;;0.80;;
3817;SDS011;1924;48.078;11.516;2022-10-20T00:47:20;30.60;;;0.80;;
3817;SDS011;1924;48.078;11.516;2022-10-20T00:49:58;30.70;;;0.80;;
3817;SDS011;1924;48.078;11.516;2022-10-20T00:52:30;30.70;;;0.80;;
3817;SDS011;1924;48.078;11.516;2022-10-20T00:54:58;30.77;;;0.80;;
3817;SDS011;1924;48.078;11.516;2022-10-20T00:57:26;30.77;;;0.80;;
3817;SDS011;1924;48.078;11.516;2022-10-20T00:59:55;30.70;;;0.80;;
3817;SDS011;1924;48.078;11.516;2022-10-20T01:02:22;30.90;;;0.80;;
3817;SDS011;1924;48.078;11.516;2022-10-20T01:04:49;30.80;;;0.80;;
3817;SDS011;1924;48.078;11.516;2022-10-20T01:07:16;30.77;;;0.80;;
3817;SDS011;1924;48.078;11.516;2022-10-20T01:09:43;30.70;;;0.80;;
3817;SDS011;1924;48.078;11.516;2022-10-20T01:12:14;30.80;;;0.80;;
3817;SDS011;1924;48.078;11.516;2022-10-20T01:14:52;30.90;;;0.80;;
3817;SDS011;1924;48.078;11.516;2022-10-20T01:17:29;30.83;;;0.80;;
3817;SDS011;1924;48.078;11.516;2022-10-20T01:26:12;31.00;;;0.80;;
3817;SDS011;1924;48.078;11.516;2022-10-20T01:29:06;30.97;;;0.80;;
3817;SDS011;1924;48.078;11.516;2022-10-20T01:31:38;31.10;;;0.80;;
3817;SDS011;1924;48.078;11.516;2022-10-20T01:34:10;31.00;;;0.80;;
3817;SDS011;1924;48.078;11.516;2022-10-20T01:36:42;31.00;;;0.80;;
3817;SDS011;1924;48.078;11.516;2022-10-20T01:39:15;31.10;;;0.80;;
3817;SDS011;1924;48.078;11.516;2022-10-20T01:41:48;31.10;;;0.80;;
3817;SDS011;1924;48.078;11.516;2022-10-20T01:44:19;31.10;;;0.80;;
3817;SDS011;1924;48.078;11.516;2022-10-20T01:46:50;31.30;;;0.80;;
3817;SDS011;1924;48.078;11.516;2022-10-20T01:49:18;31.30;;;0.80;;
3817;SDS011;1924;48.078;11.516;2022-10-20T01:51:45;31.17;;;0.80;;
3817;SDS011;1924;48.078;11.516;2022-10-20T01:54:19;31.17;;;0.80;;
3817;SDS011;1924;48.078;11.516;2022-10-20T01:56:50;31.17;;;0.80;;
3817;SDS011;1924;48.078;11.516;2022-10-20T01:59:35;31.33;;;0.80;;
3817;SDS011;1924;48.078;11.516;2022-10-20T02:02:24;31.30;;;0.80;;
3817;SDS011;1924;48.078;11.516;2022-10-20T02:05:09;31.30;;;0.80;;
3817;SDS011;1924;48.078;11.516;2022-10-20T02:07:45;31.40;;;0.80;;
3817;SDS011;1924;48.078;11.516;2022-10-20T02:10:13;31.40;;;0.80;;
3817;SDS011;1924;48.078;11.516;2022-10-20T02:12:45;31.40;;;0.80;;
3817;SDS011;1924;48.078;11.516;2022-10-20T02:15:17;31.40;;;0.80;;
3817;SDS011;1924;48.078;11.516;2022-10-20T02:17:46;31.50;;;0.80;;
3817;SDS011;1924;48.078;11.516;2022-10-20T02:20:17;31.37;;;0.80;;
3817;SDS011;1924;48.078;11.516;2022-10-20T02:22:45;31.50;;;0.80;;
3817;SDS011;1924;48.078;11.516;2022-10-20T02:25:14;31.17;;;0.80;;
3817;SDS011;1924;48.078;11.516;2022-10-20T02:27:41;31.40;;;0.80;;
3817;SDS011;1924;48.078;11.516;2022-10-20T04:02:51;31.60;;;0.80;;
3817;SDS011;1924;48.078;11.516;2022-10-20T04:05:19;31.60;;;0.80;;
3817;SDS011;1924;48.078;11.516;2022-10-20T04:10:35;31.57;;;0.80;;
3817;SDS011;1924;48.078;11.516;2022-10-20T04:15:37;31.40;;;0.80;;
3817;SDS011;1924;48.078;11.516;2022-10-20T04:20:41;31.33;;;0.80;;
3817;SDS011;1924;48.078;11.516;2022-10-20T04:23:08;31.70;;;0.80;;
3817;SDS011;1924;48.078;11.516;2022-10-20T04:25:37;31.60;;;0.80;;
3817;SDS011;1924;48.078;11.516;2022-10-20T04:28:09;31.57;;;0.80;;
3817;SDS011;1924;48.078;11.516;2022-10-20T04:30:36;31.27;;;0.80;;
3817;SDS011;1924;48.078;11.516;2022-10-20T04:33:04;31.47;;;0.80;;
3817;SDS011;1924;48.078;11.516;2022-10-20T04:35:31;31.70;;;0.80;;
3817;SDS011;1924;48.078;11.516;2022-10-20T04:43:10;31.67;;;0.80;;
3817;SDS011;1924;48.078;11.516;2022-10-20T04:45:40;31.63;;;0.80;;
3817;SDS011;1924;48.078;11.516;2022-10-20T05:05:51;31.60;;;0.80;;
3817;SDS011;1924;48.078;11.516;2022-10-20T05:08:17;31.70;;;0.80;;
3817;SDS011;1924;48.078;11.516;2022-10-20T05:10:44;31.67;;;0.80;;
3817;SDS011;1924;48.078;11.516;2022-10-20T05:13:11;31.70;;;0.80;;
3817;SDS011;1924;48.078;11.516;2022-10-20T05:15:38;31.50;;;0.80;;
3817;SDS011;1924;48.078;11.516;2022-10-20T05:18:04;31.67;;;0.80;;
3817;SDS011;1924;48.078;11.516;2022-10-20T05:20:31;31.53;;;0.80;;
3817;SDS011;1924;48.078;11.516;2022-10-20T05:22:59;31.50;;;0.80;;
3817;SDS011;1924;48.078;11.516;2022-10-20T05:25:26;31.43;;;0.80;;
3817;SDS011;1924;48.078;11.516;2022-10-20T05:27:53;31.50;;;0.80;;
3817;SDS011;1924;48.078;11.516;2022-10-20T05:30:20;31.60;;;0.80;;
3817;SDS011;1924;48.078;11.516;2022-10-20T05:32:46;31.43;;;0.80;;
3817;SDS011;1924;48.078;11.516;2022-10-20T05:35:13;31.47;;;0.80;;
3817;SDS011;1924;48.078;11.516;2022-10-20T05:37:40;31.40;;;0.80;;
3817;SDS011;1924;48.078;11.516;2022-10-20T05:40:09;31.50;;;0.80;;
3817;SDS011;1924;48.078;11.516;2022-10-20T05:42:36;31.33;;;0.80;;
3817;SDS011;1924;48.078;11.516;2022-10-20T05:45:03;31.50;;;0.80;;
3817;SDS011;1924;48.078;11.516;2022-10-20T05:47:32;31.40;;;0.80;;
3817;SDS011;1924;48.078;11.516;2022-10-20T05:49:59;31.43;;;0.80;;
3817;SDS011;1924;48.078;11.516;2022-10-20T05:52:26;31.60;;;0.80;;
3817;SDS011;1924;48.078;11.516;2022-10-20T05:54:53;31.30;;;0.80;;
3817;SDS011;1924;48.078;11.516;2022-10-20T05:57:21;31.40;;;0.80;;
3817;SDS011;1924;48.078;11.516;2022-10-20T05:59:48;31.50;;;0.80;;
3817;SDS011;1924;48.078;11.516;2022-10-20T06:02:15;31.27;;;0.80;;
3817;SDS011;1924;48.078;11.516;2022-10-20T06:04:41;31.47;;;0.80;;
3817;SDS011;1924;48.078;11.516;2022-10-20T06:07:08;31.37;;;0.80;;
3817;SDS011;1924;48.078;11.516;2022-10-20T06:09:35;31.47;;;0.80;;
3817;SDS011;1924;48.078;11.516;2022-10-20T06:12:03;31.30;;;0.80;;
3817;SDS011;1924;48.078;11.516;2022-10-20T06:14:31;31.30;;;0.80;;
3817;SDS011;1924;48.078;11.516;2022-10-20T06:16:58;31.30;;;0.80;;
3817;SDS011;1924;48.078;11.516;2022-10-20T06:19:25;31.30;;;0.80;;
3817;SDS011;1924;48.078;11.516;2022-10-20T06:21:52;31.30;;;0.80;;
3817;SDS011;1924;48.078;11.516;2022-10-20T06:26:54;31.13;;;0.80;;
3817;SDS011;1924;48.078;11.516;2022-10-20T06:29:21;31.40;;;0.80;;
3817;SDS011;1924;48.078;11.516;2022-10-20T06:31:50;31.37;;;0.83;;
3817;SDS011;1924;48.078;11.516;2022-10-20T06:34:18;31.30;;;0.80;;
3817;SDS011;1924;48.078;11.516;2022-10-20T06:36:46;31.20;;;0.80;;
3817;SDS011;1924;48.078;11.516;2022-10-20T06:39:15;31.27;;;0.80;;
3817;SDS011;1924;48.078;11.516;2022-10-20T06:52:05;31.20;;;0.80;;
3817;SDS011;1924;48.078;11.516;2022-10-20T06:54:32;31.20;;;0.80;;
3817;SDS011;1924;48.078;11.516;2022-10-20T06:57:02;31.10;;;0.80;;
3817;SDS011;1924;48.078;11.516;2022-10-20T06:59:29;31.30;;;0.80;;
3817;SDS011;1924;48.078;11.516;2022-10-20T07:01:57;31.10;;;0.80;;
3817;SDS011;1924;48.078;11.516;2022-10-20T07:04:25;31.30;;;0.80;;
3817;SDS011;1924;48.078;11.516;2022-10-20T07:06:53;31.03;;;0.80;;
3817;SDS011;1924;48.078;11.516;2022-10-20T07:09:28;31.23;;;0.80;;
3817;SDS011;1924;48.078;11.516;2022-10-20T07:14:21;31.23;;;0.80;;
3817;SDS011;1924;48.078;11.516;2022-10-20T07:16:48;30.87;;;0.80;;
3817;SDS011;1924;48.078;11.516;2022-10-20T07:19:14;31.30;;;0.80;;
3817;SDS011;1924;48.078;11.516;2022-10-20T07:21:41;31.10;;;0.80;;
3817;SDS011;1924;48.078;11.516;2022-10-20T07:24:08;31.07;;;0.80;;
3817;SDS011;1924;48.078;11.516;2022-10-20T07:26:37;31.10;;;0.80;;
3817;SDS011;1924;48.078;11.516;2022-10-20T07:31:40;31.07;;;0.80;;
3817;SDS011;1924;48.078;11.516;2022-10-20T07:34:09;31.10;;;0.80;;
3817;SDS011;1924;48.078;11.516;2022-10-20T07:39:14;31.00;;;0.80;;
3817;SDS011;1924;48.078;11.516;2022-10-20T07:41:42;31.07;;;0.80;;
3817;SDS011;1924;48.078;11.516;2022-10-20T07:44:14;30.90;;;0.80;;
3817;SDS011;1924;48.078;11.516;2022-10-20T07:46:41;31.17;;;0.80;;
3817;SDS011;1924;48.078;11.516;2022-10-20T07:49:08;31.10;;;0.80;;
3817;SDS011;1924;48.078;11.516;2022-10-20T07:51:37;31.00;;;0.80;;
3817;SDS011;1924;48.078;11.516;2022-10-20T07:54:05;31.20;;;0.80;;
3817;SDS011;1924;48.078;11.516;2022-10-20T07:56:36;31.10;;;0.80;;
3817;SDS011;1924;48.078;11.516;2022-10-20T08:01:41;31.03;;;0.80;;
3817;SDS011;1924;48.078;11.516;2022-10-20T08:06:44;31.00;;;0.80;;
3817;SDS011;1924;48.078;11.516;2022-10-20T08:09:11;31.10;;;0.80;;
3817;SDS011;1924;48.078;11.516;2022-10-20T08:11:38;30.83;;;0.80;;
3817;SDS011;1924;48.078;11.516;2022-10-20T08:14:04;31.10;;;0.80;;
3817;SDS011;1924;48.078;11.516;2022-10-20T08:16:31;30.90;;;0.80;;
3817;SDS011;1924;48.078;11.516;2022-10-20T08:19:00;30.80;;;0.80;;
3817;SDS011;1924;48.078;11.516;2022-10-20T08:21:27;31.00;;;0.80;;
3817;SDS011;1924;48.078;11.516;2022-10-20T08:23:53;31.00;;;0.80;;
3817;SDS011;1924;48.078;11.516;2022-10-20T08:26:21;30.87;;;0.80;;
3817;SDS011;1924;48.078;11.516;2022-10-20T08:28:49;30.80;;;0.80;;
3817;SDS011;1924;48.078;11.516;2022-10-20T08:31:18;30.90;;;0.80;;
3817;SDS011;1924;48.078;11.516;2022-10-20T08:33:45;31.10;;;0.80;;
3817;SDS011;1924;48.078;11.516;2022-10-20T08:36:13;31.10;;;0.80;;
3817;SDS011;1924;48.078;11.516;2022-10-20T08:38:41;31.20;;;0.80;;
3817;SDS011;1924;48.078;11.516;2022-10-20T08:41:11;31.07;;;0.80;;
3817;SDS011;1924;48.078;11.516;2022-10-20T08:43:41;31.00;;;0.80;;
3817;SDS011;1924;48.078;11.516;2022-10-20T08:46:10;30.90;;;0.80;;
3817;SDS011;1924;48.078;11.516;2022-10-20T08:48:39;31.00;;;0.80;;
3817;SDS011;1924;48.078;11.516;2022-10-20T08:51:09;31.10;;;0.80;;
3817;SDS011;1924;48.078;11.516;2022-10-20T08:53:44;30.90;;;0.80;;
3817;SDS011;1924;48.078;11.516;2022-10-20T08:56:13;30.90;;;0.80;;
3817;SDS011;1924;48.078;11.516;2022-10-20T08:58:41;30.90;;;0.80;;
3817;SDS011;1924;48.078;11.516;2022-10-20T09:03:44;30.67;;;0.80;;
3817;SDS011;1924;48.078;11.516;2022-10-20T09:06:15;30.70;;;0.80;;
3817;SDS011;1924;48.078;11.516;2022-10-20T09:08:43;30.90;;;0.80;;
3817;SDS011;1924;48.078;11.516;2022-10-20T09:11:13;30.80;;;0.80;;
3817;SDS011;1924;48.078;11.516;2022-10-20T09:13:42;30.80;;;0.80;;
3817;SDS011;1924;48.078;11.516;2022-10-20T09:16:14;30.90;;;0.80;;
3817;SDS011;1924;48.078;11.516;2022-10-20T09:18:48;30.77;;;0.80;;
3817;SDS011;1924;48.078;11.516;2022-10-20T09:23:55;30.73;;;0.80;;
3817;SDS011;1924;48.078;11.516;2022-10-20T09:26:30;30.70;;;0.80;;
3817;SDS011;1924;48.078;11.516;2022-10-20T09:29:03;30.70;;;0.80;;
3817;SDS011;1924;48.078;11.516;2022-10-20T09:31:32;30.77;;;0.80;;
3817;SDS011;1924;48.078;11.516;2022-10-20T09:34:01;30.77;;;0.80;;
3817;SDS011;1924;48.078;11.516;2022-10-20T09:36:30;30.80;;;0.80;;
3817;SDS011;1924;48.078;11.516;2022-10-20T09:39:01;30.60;;;0.80;;
3817;SDS011;1924;48.078;11.516;2022-10-20T09:41:29;30.67;;;0.80;;
3817;SDS011;1924;48.078;11.516;2022-10-20T09:46:22;30.67;;;0.80;;
3817;SDS011;1924;48.078;11.516;2022-10-20T09:48:52;30.70;;;0.80;;
3817;SDS011;1924;48.078;11.516;2022-10-20T09:51:20;30.60;;;0.80;;
3817;SDS011;1924;48.078;11.516;2022-10-20T10:06:47;30.47;;;0.80;;
3817;SDS011;1924;48.078;11.516;2022-10-20T10:09:25;30.60;;;0.80;;
3817;SDS011;1924;48.078;11.516;2022-10-20T10:14:33;30.60;;;0.80;;
3817;SDS011;1924;48.078;11.516;2022-10-20T10:17:02;30.50;;;0.80;;
3817;SDS011;1924;48.078;11.516;2022-10-20T10:19:29;30.90;;;0.80;;
3817;SDS011;1924;48.078;11.516;2022-10-20T10:40:12;30.97;;;0.80;;
3817;SDS011;1924;48.078;11.516;2022-10-20T10:42:44;31.00;;;0.80;;
3817;SDS011;1924;48.078;11.516;2022-10-20T10:45:29;31.00;;;0.80;;
3817;SDS011;1924;48.078;11.516;2022-10-20T11:01:10;30.80;;;0.80;;
3817;SDS011;1924;48.078;11.516;2022-10-20T11:04:17;30.80;;;0.80;;
3817;SDS011;1924;48.078;11.516;2022-10-20T11:09:46;30.70;;;0.80;;
3817;SDS011;1924;48.078;11.516;2022-10-20T11:22:49;30.67;;;0.80;;
3817;SDS011;1924;48.078;11.516;2022-10-20T11:35:57;30.70;;;0.80;;
3817;SDS011;1924;48.078;11.516;2022-10-20T11:38:29;30.80;;;0.80;;
3817;SDS011;1924;48.078;11.516;2022-10-20T11:41:03;30.80;;;0.80;;
3817;SDS011;1924;48.078;11.516;2022-10-20T11:51:25;31.00;;;0.80;;
3817;SDS011;1924;48.078;11.516;2022-10-20T11:57:22;31.00;;;0.80;;
3817;SDS011;1924;48.078;11.516;2022-10-20T12:00:03;31.00;;;0.80;;
3817;SDS011;1924;48.078;11.516;2022-10-20T12:06:04;30.97;;;0.80;;
3817;SDS011;1924;48.078;11.516;2022-10-20T12:11:48;31.00;;;0.80;;
3817;SDS011;1924;48.078;11.516;2022-10-20T12:14:22;31.10;;;0.80;;
3817;SDS011;1924;48.078;11.516;2022-10-20T12:17:10;30.90;;;0.80;;
3817;SDS011;1924;48.078;11.516;2022-10-20T12:19:40;31.10;;;0.80;;
3817;SDS011;1924;48.078;11.516;2022-10-20T12:24:43;31.00;;;0.80;;
3817;SDS011;1924;48.078;11.516;2022-10-20T12:27:29;31.20;;;0.80;;
3817;SDS011;1924;48.078;11.516;2022-10-20T12:29:58;31.17;;;0.80;;
3817;SDS011;1924;48.078;11.516;2022-10-20T12:35:28;31.20;;;0.80;;
3817;SDS011;1924;48.078;11.516;2022-10-20T12:38:18;31.10;;;0.80;;
3817;SDS011;1924;48.078;11.516;2022-10-20T12:40:50;31.17;;;0.80;;
3817;SDS011;1924;48.078;11.516;2022-10-20T12:43:23;31.20;;;0.80;;
3817;SDS011;1924;48.078;11.516;2022-10-20T12:45:56;30.90;;;0.80;;
3817;SDS011;1924;48.078;11.516;2022-10-20T12:48:28;31.20;;;0.83;;
3817;SDS011;1924;48.078;11.516;2022-10-20T12:51:01;30.97;;;0.80;;
3817;SDS011;1924;48.078;11.516;2022-10-20T12:53:35;31.10;;;0.80;;
3817;SDS011;1924;48.078;11.516;2022-10-20T12:56:03;31.00;;;0.80;;
3817;SDS011;1924;48.078;11.516;2022-10-20T12:58:33;30.93;;;0.80;;
3817;SDS011;1924;48.078;11.516;2022-10-20T13:01:10;30.97;;;0.80;;
3817;SDS011;1924;48.078;11.516;2022-10-20T13:03:39;30.87;;;0.80;;
3817;SDS011;1924;48.078;11.516;2022-10-20T13:09:17;31.07;;;0.80;;
3817;SDS011;1924;48.078;11.516;2022-10-20T13:11:56;31.10;;;0.80;;
3817;SDS011;1924;48.078;11.516;2022-10-20T13:14:26;30.90;;;0.80;;
3817;SDS011;1924;48.078;11.516;2022-10-20T13:17:15;30.90;;;0.80;;
3817;SDS011;1924;48.078;11.516;2022-10-20T13:19:47;30.80;;;0.80;;
3817;SDS011;1924;48.078;11.516;2022-10-20T13:22:31;30.90;;;0.80;;
3817;SDS011;1924;48.078;11.516;2022-10-20T13:25:12;30.60;;;0.80;;
3817;SDS011;1924;48.078;11.516;2022-10-20T13:27:46;30.60;;;0.80;;
3817;SDS011;1924;48.078;11.516;2022-10-20T13:30:18;30.70;;;0.80;;
3817;SDS011;1924;48.078;11.516;2022-10-20T13:32:49;30.77;;;0.80;;
3817;SDS011;1924;48.078;11.516;2022-10-20T13:35:23;30.90;;;0.80;;
3817;SDS011;1924;48.078;11.516;2022-10-20T13:40:34;30.60;;;0.80;;
3817;SDS011;1924;48.078;11.516;2022-10-20T13:43:17;30.57;;;0.80;;
3817;SDS011;1924;48.078;11.516;2022-10-20T13:46:00;30.70;;;0.80;;
3817;SDS011;1924;48.078;11.516;2022-10-20T13:56:44;30.57;;;0.80;;
3817;SDS011;1924;48.078;11.516;2022-10-20T13:59:18;30.70;;;0.80;;
3817;SDS011;1924;48.078;11.516;2022-10-20T14:01:47;30.60;;;0.80;;
3817;SDS011;1924;48.078;11.516;2022-10-20T14:04:22;30.57;;;0.80;;
3817;SDS011;1924;48.078;11.516;2022-10-20T14:06:51;30.40;;;0.80;;
3817;SDS011;1924;48.078;11.516;2022-10-20T14:14:40;30.50;;;0.80;;
3817;SDS011;1924;48.078;11.516;2022-10-20T14:17:14;30.50;;;0.80;;
3817;SDS011;1924;48.078;11.516;2022-10-20T14:24:55;30.50;;;0.80;;
3817;SDS011;1924;48.078;11.516;2022-10-20T14:27:24;30.40;;;0.80;;
3817;SDS011;1924;48.078;11.516;2022-10-20T14:32:38;30.37;;;0.80;;
3817;SDS011;1924;48.078;11.516;2022-10-20T14:35:13;30.47;;;0.80;;
3817;SDS011;1924;48.078;11.516;2022-10-20T14:37:49;30.43;;;0.80;;
3817;SDS011;1924;48.078;11.516;2022-10-20T14:42:56;30.50;;;0.80;;
3817;SDS011;1924;48.078;11.516;2022-10-20T14:55:52;30.57;;;0.80;;
3817;SDS011;1924;48.078;11.516;2022-10-20T15:03:34;30.70;;;0.80;;
3817;SDS011;1924;48.078;11.516;2022-10-20T15:08:39;30.57;;;0.80;;
3817;SDS011;1924;48.078;11.516;2022-10-20T15:11:20;30.50;;;0.80;;
3817;SDS011;1924;48.078;11.516;2022-10-20T15:13:48;30.50;;;0.73;;
3817;SDS011;1924;48.078;11.516;2022-10-20T15:16:30;30.57;;;0.70;;
3817;SDS011;1924;48.078;11.516;2022-10-20T15:34:23;30.60;;;0.80;;
3817;SDS011;1924;48.078;11.516;2022-10-20T15:36:50;30.57;;;0.80;;
3817;SDS011;1924;48.078;11.516;2022-10-20T15:39:17;30.70;;;0.80;;
3817;SDS011;1924;48.078;11.516;2022-10-20T15:41:43;30.60;;;0.80;;
3817;SDS011;1924;48.078;11.516;2022-10-20T15:44:11;30.70;;;0.80;;
3817;SDS011;1924;48.078;11.516;2022-10-20T15:46:40;30.80;;;0.80;;
3817;SDS011;1924;48.078;11.516;2022-10-20T15:49:08;30.70;;;0.80;;
3817;SDS011;1924;48.078;11.516;2022-10-20T15:54:13;30.73;;;0.80;;
3817;SDS011;1924;48.078;11.516;2022-10-20T15:56:41;30.73;;;0.80;;
3817;SDS011;1924;48.078;11.516;2022-10-20T15:59:08;30.73;;;0.80;;
3817;SDS011;1924;48.078;11.516;2022-10-20T16:01:35;31.00;;;0.80;;
3817;SDS011;1924;48.078;11.516;2022-10-20T16:04:07;30.90;;;0.80;;
3817;SDS011;1924;48.078;11.516;2022-10-20T16:06:42;30.60;;;0.80;;
3817;SDS011;1924;48.078;11.516;2022-10-20T16:09:09;30.73;;;0.80;;
3817;SDS011;1924;48.078;11.516;2022-10-20T16:11:37;31.00;;;0.80;;
3817;SDS011;1924;48.078;11.516;2022-10-20T16:14:04;30.80;;;0.80;;
3817;SDS011;1924;48.078;11.516;2022-10-20T16:16:31;30.80;;;0.80;;
3817;SDS011;1924;48.078;11.516;2022-10-20T16:18:58;30.80;;;0.80;;
3817;SDS011;1924;48.078;11.516;2022-10-20T16:21:25;30.90;;;0.80;;
3817;SDS011;1924;48.078;11.516;2022-10-20T16:23:52;30.90;;;0.80;;
3817;SDS011;1924;48.078;11.516;2022-10-20T16:26:19;30.77;;;0.80;;
3817;SDS011;1924;48.078;11.516;2022-10-20T16:28:47;30.70;;;0.80;;
3817;SDS011;1924;48.078;11.516;2022-10-20T16:31:14;30.90;;;0.80;;
3817;SDS011;1924;48.078;11.516;2022-10-20T16:33:41;30.70;;;0.80;;
3817;SDS011;1924;48.078;11.516;2022-10-20T16:36:09;30.77;;;0.80;;
3817;SDS011;1924;48.078;11.516;2022-10-20T16:38:37;30.80;;;0.80;;
3817;SDS011;1924;48.078;11.516;2022-10-20T16:41:04;30.80;;;0.80;;
3817;SDS011;1924;48.078;11.516;2022-10-20T16:43:35;30.77;;;0.77;;
3817;SDS011;1924;48.078;11.516;2022-10-20T16:46:04;30.67;;;0.80;;
3817;SDS011;1924;48.078;11.516;2022-10-20T16:48:31;30.70;;;0.80;;
3817;SDS011;1924;48.078;11.516;2022-10-20T16:50:59;30.80;;;0.80;;
3817;SDS011;1924;48.078;11.516;2022-10-20T16:53:25;30.60;;;0.80;;
3817;SDS011;1924;48.078;11.516;2022-10-20T16:55:53;30.80;;;0.80;;
3817;SDS011;1924;48.078;11.516;2022-10-20T16:58:20;30.70;;;0.80;;
3817;SDS011;1924;48.078;11.516;2022-10-20T17:01:00;30.90;;;0.80;;
3817;SDS011;1924;48.078;11.516;2022-10-20T17:03:31;30.60;;;0.70;;
3817;SDS011;1924;48.078;11.516;2022-10-20T17:05:59;30.60;;;0.80;;
3817;SDS011;1924;48.078;11.516;2022-10-20T17:08:27;30.80;;;0.80;;
3817;SDS011;1924;48.078;11.516;2022-10-20T17:10:56;30.57;;;0.80;;
3817;SDS011;1924;48.078;11.516;2022-10-20T17:13:24;30.70;;;0.77;;
3817;SDS011;1924;48.078;11.516;2022-10-20T17:15:51;30.70;;;0.80;;
3817;SDS011;1924;48.078;11.516;2022-10-20T17:18:19;30.70;;;0.80;;
3817;SDS011;1924;48.078;11.516;2022-10-20T17:20:52;30.50;;;0.70;;
3817;SDS011;1924;48.078;11.516;2022-10-20T17:23:19;30.70;;;0.80;;
3817;SDS011;1924;48.078;11.516;2022-10-20T17:25:46;30.70;;;0.80;;
3817;SDS011;1924;48.078;11.516;2022-10-20T17:28:13;30.60;;;0.80;;
3817;SDS011;1924;48.078;11.516;2022-10-20T17:30:40;30.50;;;0.80;;
3817;SDS011;1924;48.078;11.516;2022-10-20T17:33:07;30.80;;;0.80;;
3817;SDS011;1924;48.078;11.516;2022-10-20T17:35:34;30.57;;;0.80;;
3817;SDS011;1924;48.078;11.516;2022-10-20T17:38:02;30.60;;;0.80;;
3817;SDS011;1924;48.078;11.516;2022-10-20T17:40:29;30.60;;;0.70;;
3817;SDS011;1924;48.078;11.516;2022-10-20T17:43:00;30.43;;;0.73;;
3817;SDS011;1924;48.078;11.516;2022-10-20T17:45:27;30.70;;;0.80;;
3817;SDS011;1924;48.078;11.516;2022-10-20T17:50:29;30.50;;;0.80;;
3817;SDS011;1924;48.078;11.516;2022-10-20T17:52:57;30.70;;;0.80;;
3817;SDS011;1924;48.078;11.516;2022-10-20T17:55:26;30.60;;;0.80;;
3817;SDS011;1924;48.078;11.516;2022-10-20T17:57:53;30.50;;;0.80;;
3817;SDS011;1924;48.078;11.516;2022-10-20T18:00:21;30.80;;;0.80;;
3817;SDS011;1924;48.078;11.516;2022-10-20T18:02:51;30.77;;;0.80;;
3817;SDS011;1924;48.078;11.516;2022-10-20T18:05:17;30.70;;;0.77;;
3817;SDS011;1924;48.078;11.516;2022-10-20T18:07:44;30.60;;;0.80;;
3817;SDS011;1924;48.078;11.516;2022-10-20T18:10:11;30.70;;;0.80;;
3817;SDS011;1924;48.078;11.516;2022-10-20T18:12:39;30.60;;;0.80;;
3817;SDS011;1924;48.078;11.516;2022-10-20T18:15:06;30.67;;;0.80;;
3817;SDS011;1924;48.078;11.516;2022-10-20T18:17:33;30.60;;;0.73;;
3817;SDS011;1924;48.078;11.516;2022-10-20T18:20:02;30.47;;;0.80;;
3817;SDS011;1924;48.078;11.516;2022-10-20T18:22:30;30.57;;;0.80;;
3817;SDS011;1924;48.078;11.516;2022-10-20T18:24:57;30.50;;;0.80;;
3817;SDS011;1924;48.078;11.516;2022-10-20T18:27:23;30.60;;;0.80;;
3817;SDS011;1924;48.078;11.516;2022-10-20T18:29:51;30.30;;;0.80;;
3817;SDS011;1924;48.078;11.516;2022-10-20T18:32:18;30.60;;;0.80;;
3817;SDS011;1924;48.078;11.516;2022-10-20T18:34:48;30.43;;;0.80;;
3817;SDS011;1924;48.078;11.516;2022-10-20T18:37:15;30.50;;;0.80;;
3817;SDS011;1924;48.078;11.516;2022-10-20T18:39:43;30.40;;;0.80;;
3817;SDS011;1924;48.078;11.516;2022-10-20T18:42:12;30.50;;;0.80;;
3817;SDS011;1924;48.078;11.516;2022-10-20T18:52:18;30.50;;;0.80;;
3817;SDS011;1924;48.078;11.516;2022-10-20T18:57:19;30.50;;;0.80;;
3817;SDS011;1924;48.078;11.516;2022-10-20T19:02:22;30.60;;;0.80;;
3817;SDS011;1924;48.078;11.516;2022-10-20T19:04:50;30.33;;;0.80;;
3817;SDS011;1924;48.078;11.516;2022-10-20T19:07:20;30.60;;;0.80;;
3817;SDS011;1924;48.078;11.516;2022-10-20T19:09:46;30.60;;;0.80;;
3817;SDS011;1924;48.078;11.516;2022-10-20T19:12:16;30.50;;;0.80;;
3817;SDS011;1924;48.078;11.516;2022-10-20T19:14:43;30.60;;;0.80;;
3817;SDS011;1924;48.078;11.516;2022-10-20T19:17:10;30.60;;;0.80;;
3817;SDS011;1924;48.078;11.516;2022-10-20T19:19:37;30.40;;;0.80;;
3817;SDS011;1924;48.078;11.516;2022-10-20T19:22:05;30.40;;;0.80;;
3817;SDS011;1924;48.078;11.516;2022-10-20T19:24:34;30.50;;;0.80;;
3817;SDS011;1924;48.078;11.516;2022-10-20T19:27:04;30.60;;;0.80;;
3817;SDS011;1924;48.078;11.516;2022-10-20T19:29:31;30.47;;;0.80;;
3817;SDS011;1924;48.078;11.516;2022-10-20T19:31:58;30.27;;;0.80;;
3817;SDS011;1924;48.078;11.516;2022-10-20T19:34:28;30.60;;;0.80;;
3817;SDS011;1924;48.078;11.516;2022-10-20T19:36:56;30.47;;;0.80;;
3817;SDS011;1924;48.078;11.516;2022-10-20T19:39:24;30.47;;;0.80;;
3817;SDS011;1924;48.078;11.516;2022-10-20T19:44:29;30.50;;;0.80;;
3817;SDS011;1924;48.078;11.516;2022-10-20T19:49:32;30.50;;;0.80;;
3817;SDS011;1924;48.078;11.516;2022-10-20T19:54:34;30.60;;;0.80;;
3817;SDS011;1924;48.078;11.516;2022-10-20T19:57:01;30.47;;;0.80;;
3817;SDS011;1924;48.078;11.516;2022-10-20T20:04:40;30.60;;;0.80;;
3817;SDS011;1924;48.078;11.516;2022-10-20T20:07:08;30.30;;;0.80;;
3817;SDS011;1924;48.078;11.516;2022-10-20T20:12:10;30.60;;;0.80;;
3817;SDS011;1924;48.078;11.516;2022-10-20T20:14:43;30.50;;;0.80;;
3817;SDS011;1924;48.078;11.516;2022-10-20T20:17:09;30.50;;;0.80;;
3817;SDS011;1924;48.078;11.516;2022-10-20T20:19:41;30.57;;;0.80;;
3817;SDS011;1924;48.078;11.516;2022-10-20T20:22:13;30.60;;;0.80;;
3817;SDS011;1924;48.078;11.516;2022-10-20T20:24:40;30.60;;;0.80;;
3817;SDS011;1924;48.078;11.516;2022-10-20T20:32:20;30.60;;;0.80;;
3817;SDS011;1924;48.078;11.516;2022-10-20T20:34:49;30.40;;;0.80;;
3817;SDS011;1924;48.078;11.516;2022-10-20T20:37:16;30.60;;;0.80;;
3817;SDS011;1924;48.078;11.516;2022-10-20T20:39:42;30.60;;;0.80;;
3817;SDS011;1924;48.078;11.516;2022-10-20T20:42:09;30.60;;;0.80;;
3817;SDS011;1924;48.078;11.516;2022-10-20T20:47:11;30.50;;;0.77;;
3817;SDS011;1924;48.078;11.516;2022-10-20T20:52:18;30.40;;;0.80;;
3817;SDS011;1924;48.078;11.516;2022-10-20T20:54:45;30.47;;;0.80;;
3817;SDS011;1924;48.078;11.516;2022-10-20T20:57:12;30.70;;;0.80;;
3817;SDS011;1924;48.078;11.516;2022-10-20T20:59:40;30.67;;;0.80;;
3817;SDS011;1924;48.078;11.516;2022-10-20T21:02:08;30.47;;;0.80;;
3817;SDS011;1924;48.078;11.516;2022-10-20T21:04:35;30.50;;;0.80;;
3817;SDS011;1924;48.078;11.516;2022-10-20T21:07:01;30.57;;;0.80;;